createdAt,value
2023-07-25T00:00:40.176Z,25.14
2023-07-25T00:03:43.271Z,25.13
2023-07-25T00:06:46.193Z,25.25
2023-07-25T00:09:49.607Z,25.24
2023-07-25T00:12:54.545Z,25.23
2023-07-25T00:15:57.427Z,25.17
2023-07-25T00:19:00.219Z,25.18
2023-07-25T00:22:03.685Z,25.18
2023-07-25T00:25:07.573Z,25.18
2023-07-25T00:28:10.481Z,25.16
2023-07-25T00:31:13.492Z,25.23
2023-07-25T00:34:16.276Z,25.09
2023-07-25T00:37:19.030Z,25.07
2023-07-25T00:40:24.279Z,25.14
2023-07-25T00:43:27.182Z,25.44
2023-07-25T00:46:30.135Z,25.52
2023-07-25T00:49:32.922Z,25.58
2023-07-25T00:52:35.744Z,25.60
2023-07-25T00:55:39.334Z,25.63
2023-07-25T00:58:42.605Z,25.56
2023-07-25T01:01:45.572Z,25.49
2023-07-25T01:04:48.502Z,25.36
2023-07-25T01:07:51.298Z,25.31
2023-07-25T01:10:54.848Z,25.22
2023-07-25T01:13:57.989Z,25.05
2023-07-25T01:17:22.337Z,24.93
2023-07-25T01:20:27.048Z,24.78
2023-07-25T01:23:30.752Z,24.56
2023-07-25T01:26:33.518Z,24.44
2023-07-25T01:29:36.352Z,24.27
2023-07-25T01:32:39.620Z,24.14
2023-07-25T01:35:42.852Z,24.05
2023-07-25T01:38:45.745Z,24.05
2023-07-25T01:41:48.525Z,24.03
2023-07-25T01:44:51.289Z,23.93
2023-07-25T01:47:54.610Z,23.83
2023-07-25T01:50:57.861Z,23.82
2023-07-25T01:54:00.794Z,23.78
2023-07-25T01:57:04.525Z,23.73
2023-07-25T02:00:08.140Z,23.70
2023-07-25T02:03:19.587Z,23.61
2023-07-25T02:06:22.384Z,23.62
2023-07-25T02:09:25.197Z,23.55
2023-07-25T02:12:30.291Z,23.50
2023-07-25T02:15:33.165Z,23.40
2023-07-25T02:18:36.155Z,23.33
2023-07-25T02:21:39.372Z,23.27
2023-07-25T02:24:42.187Z,23.22
2023-07-25T02:27:45.032Z,23.07
2023-07-25T02:30:48.104Z,23.02
2023-07-25T02:33:50.978Z,22.94
2023-07-25T02:36:53.731Z,22.85
2023-07-25T02:39:56.477Z,22.78
2023-07-25T02:42:59.366Z,22.69
2023-07-25T02:46:03.133Z,22.67
2023-07-25T02:49:06.456Z,22.64
2023-07-25T02:52:09.681Z,22.60
2023-07-25T02:55:12.782Z,22.62
2023-07-25T02:58:15.759Z,22.56
2023-07-25T03:01:18.921Z,22.48
2023-07-25T03:04:21.989Z,22.49
2023-07-25T03:07:24.820Z,22.45
2023-07-25T03:10:28.230Z,22.47
2023-07-25T03:13:30.983Z,22.40
2023-07-25T03:16:34.593Z,22.35
2023-07-25T03:19:37.608Z,22.36
2023-07-25T03:22:40.439Z,22.43
2023-07-25T03:25:43.194Z,22.42
2023-07-25T03:28:46.047Z,22.37
2023-07-25T03:31:48.844Z,22.35
2023-07-25T03:34:51.729Z,22.36
2023-07-25T03:37:54.554Z,22.25
2023-07-25T03:40:57.270Z,22.10
2023-07-25T03:44:00.078Z,21.95
2023-07-25T03:47:03.112Z,21.94
2023-07-25T03:50:06.478Z,21.92
2023-07-25T03:53:09.217Z,21.87
2023-07-25T03:56:13.946Z,21.89
2023-07-25T03:59:17.742Z,21.93
2023-07-25T04:02:20.997Z,21.91
2023-07-25T04:05:23.952Z,21.78
2023-07-25T04:08:26.827Z,21.77
2023-07-25T04:11:30.123Z,21.87
2023-07-25T04:14:33.408Z,21.82
2023-07-25T04:17:37.770Z,21.78
2023-07-25T04:20:40.541Z,21.75
2023-07-25T04:23:44.343Z,21.58
2023-07-25T04:26:47.106Z,21.69
2023-07-25T04:29:49.990Z,21.64
2023-07-25T04:32:52.875Z,21.76
2023-07-25T04:35:56.167Z,21.89
2023-07-25T04:38:58.953Z,21.83
2023-07-25T04:42:01.712Z,21.85
2023-07-25T04:45:05.921Z,22.01
2023-07-25T04:48:08.940Z,22.26
2023-07-25T04:51:11.713Z,22.67
2023-07-25T04:54:14.596Z,22.81
2023-07-25T04:57:17.476Z,22.68
2023-07-25T05:00:20.734Z,23.11
2023-07-25T05:03:23.870Z,23.20
2023-07-25T05:06:26.728Z,23.60
2023-07-25T05:09:29.486Z,23.65
2023-07-25T05:12:32.269Z,24.19
2023-07-25T05:15:35.231Z,24.19
2023-07-25T05:18:38.256Z,24.51
2023-07-25T05:21:43.491Z,25.10
2023-07-25T05:24:46.860Z,25.23
2023-07-25T05:27:49.727Z,25.26
2023-07-25T05:30:52.427Z,25.00
2023-07-25T05:33:55.205Z,25.18
2023-07-25T05:36:58.066Z,25.06
2023-07-25T05:40:00.810Z,25.32
2023-07-25T05:43:04.501Z,25.72
2023-07-25T05:46:09.014Z,25.90
2023-07-25T05:49:11.796Z,25.93
2023-07-25T05:52:14.537Z,25.94
2023-07-25T05:55:17.398Z,26.27
2023-07-25T05:58:20.173Z,26.38
2023-07-25T06:01:22.972Z,26.57
2023-07-25T06:04:25.889Z,26.93
2023-07-25T06:07:28.650Z,27.23
2023-07-25T06:10:31.904Z,27.20
2023-07-25T06:13:35.288Z,26.87
2023-07-25T06:16:38.246Z,26.96
2023-07-25T06:19:41.060Z,26.60
2023-07-25T06:22:43.998Z,27.10
2023-07-25T06:25:46.883Z,27.21
2023-07-25T06:28:49.712Z,26.88
2023-07-25T06:31:52.709Z,26.83
2023-07-25T06:34:55.611Z,27.00
2023-07-25T06:37:58.389Z,26.86
2023-07-25T06:41:01.236Z,27.33
2023-07-25T06:44:04.238Z,26.96
2023-07-25T06:47:07.541Z,27.68
2023-07-25T06:50:10.628Z,27.86
2023-07-25T06:53:14.478Z,28.10
2023-07-25T06:56:17.753Z,27.86
2023-07-25T06:59:20.800Z,28.07
2023-07-25T07:02:27.029Z,27.89
2023-07-25T07:05:31.603Z,28.41
2023-07-25T07:08:35.851Z,29.06
2023-07-25T07:15:25.859Z,29.37
2023-07-25T07:18:28.879Z,29.50
2023-07-25T07:21:31.992Z,29.52
2023-07-25T07:24:35.065Z,29.49
2023-07-25T07:27:37.947Z,29.69
2023-07-25T07:30:41.159Z,30.25
2023-07-25T07:33:44.112Z,30.44
2023-07-25T07:36:46.889Z,31.23
2023-07-25T07:39:49.699Z,30.99
2023-07-25T07:42:52.654Z,30.31
2023-07-25T07:45:58.283Z,30.09
2023-07-25T07:49:01.580Z,30.88
2023-07-25T07:52:15.733Z,31.71
2023-07-25T07:55:25.661Z,30.79
2023-07-25T07:58:28.398Z,30.52
2023-07-25T08:01:31.346Z,30.62
2023-07-25T08:04:36.293Z,30.17
2023-07-25T08:07:39.620Z,31.15
2023-07-25T08:10:42.692Z,30.14
2023-07-25T08:13:45.570Z,29.96
2023-07-25T08:16:48.433Z,29.23
2023-07-25T08:19:54.002Z,28.96
2023-07-25T08:22:58.533Z,28.54
2023-07-25T08:26:04.809Z,28.00
2023-07-25T08:29:07.628Z,28.08
2023-07-25T08:32:11.461Z,27.89
2023-07-25T08:35:14.872Z,28.64
2023-07-25T08:38:17.720Z,29.29
2023-07-25T08:41:26.677Z,29.39
2023-07-25T08:44:29.872Z,29.29
2023-07-25T08:47:34.911Z,30.07
2023-07-25T08:50:39.474Z,30.65
2023-07-25T08:53:51.402Z,30.65
2023-07-25T08:56:54.752Z,30.85
2023-07-25T08:59:58.874Z,30.36
2023-07-25T09:03:02.863Z,29.91
2023-07-25T09:06:16.750Z,29.79
2023-07-25T09:09:20.106Z,29.60
2023-07-25T09:12:23.158Z,29.64
2023-07-25T09:15:26.206Z,29.30
2023-07-25T09:18:29.317Z,30.76
2023-07-25T09:21:32.456Z,32.47
2023-07-25T09:24:40.317Z,33.44
2023-07-25T09:27:47.640Z,34.33
2023-07-25T09:30:52.697Z,35.21
2023-07-25T09:33:57.503Z,35.67
2023-07-25T09:37:05.382Z,34.88
2023-07-25T09:40:12.549Z,33.69
2023-07-25T09:43:28.574Z,32.17
2023-07-25T09:46:31.344Z,30.84
2023-07-25T09:49:34.645Z,29.87
2023-07-25T09:52:44.331Z,29.64
2023-07-25T09:55:47.188Z,29.42
2023-07-25T10:02:05.341Z,28.92
2023-07-25T10:05:08.848Z,29.02
2023-07-25T10:08:17.259Z,29.04
2023-07-25T10:11:20.212Z,29.02
2023-07-25T10:14:23.611Z,29.28
2023-07-25T10:17:26.850Z,30.25
2023-07-25T10:20:29.878Z,30.93
2023-07-25T10:23:37.670Z,31.57
2023-07-25T10:27:02.004Z,31.20
2023-07-25T10:30:25.740Z,30.97
2023-07-25T10:33:28.790Z,30.86
2023-07-25T10:36:31.641Z,30.58
2023-07-25T10:39:34.802Z,30.17
2023-07-25T10:46:01.069Z,29.44
2023-07-25T10:49:21.909Z,29.29
2023-07-25T10:52:44.903Z,28.95
2023-07-25T10:56:09.139Z,28.86
2023-07-25T10:59:14.077Z,29.57
2023-07-25T11:02:38.294Z,30.31
2023-07-25T11:05:41.996Z,30.30
2023-07-25T11:08:45.242Z,29.93
2023-07-25T11:11:50.488Z,29.69
2023-07-25T11:14:56.154Z,29.77
2023-07-25T11:18:08.348Z,29.01
2023-07-25T11:21:11.508Z,28.94
2023-07-25T11:24:16.148Z,29.15
2023-07-25T11:27:19.447Z,28.86
2023-07-25T11:30:23.140Z,28.31
2023-07-25T11:33:26.743Z,27.85
2023-07-25T11:36:39.534Z,27.33
2023-07-25T11:39:43.478Z,26.70
2023-07-25T11:42:48.781Z,25.45
2023-07-25T11:45:51.666Z,24.57
2023-07-25T11:48:55.055Z,24.18
2023-07-25T11:51:57.788Z,23.93
2023-07-25T11:55:02.744Z,23.85
2023-07-25T11:58:05.637Z,23.58
2023-07-25T12:01:11.614Z,23.56
2023-07-25T12:04:17.199Z,23.50
2023-07-25T12:07:22.431Z,23.45
2023-07-25T12:10:33.094Z,23.40
2023-07-25T12:13:54.408Z,23.16
2023-07-25T12:17:04.441Z,23.18
2023-07-25T12:20:14.330Z,23.17
2023-07-25T12:23:17.406Z,23.17
2023-07-25T12:26:23.153Z,23.23
2023-07-25T12:29:26.417Z,23.18
2023-07-25T12:32:32.497Z,23.11
2023-07-25T12:35:35.477Z,23.18
2023-07-25T12:38:38.292Z,23.42
2023-07-25T12:41:43.728Z,23.66
2023-07-25T12:44:46.503Z,24.06
2023-07-25T12:47:49.697Z,24.58
2023-07-25T12:50:52.565Z,24.87
2023-07-25T12:53:56.981Z,24.96
2023-07-25T12:57:00.008Z,24.99
2023-07-25T13:00:07.047Z,25.19
2023-07-25T13:03:10.738Z,25.28
2023-07-25T13:06:13.707Z,25.39
2023-07-25T13:09:16.553Z,26.20
2023-07-25T13:12:19.489Z,28.07
2023-07-25T13:15:22.494Z,26.93
2023-07-25T13:18:30.397Z,27.05
2023-07-25T13:21:36.646Z,26.51
2023-07-25T13:24:39.812Z,26.56
2023-07-25T13:27:44.226Z,26.48
2023-07-25T13:30:47.837Z,26.64
2023-07-25T13:33:51.066Z,26.46
2023-07-25T13:36:54.204Z,26.54
2023-07-25T13:39:57.914Z,26.44
2023-07-25T13:43:04.174Z,26.07
2023-07-25T13:46:10.375Z,25.68
2023-07-25T13:49:13.795Z,25.47
2023-07-25T13:52:16.544Z,25.06
2023-07-25T13:55:19.258Z,24.82
2023-07-25T13:58:24.682Z,24.83
2023-07-25T14:01:27.701Z,24.95
2023-07-25T14:04:30.601Z,25.51
2023-07-25T14:07:33.573Z,25.86
2023-07-25T14:10:37.461Z,26.10
2023-07-25T14:13:40.330Z,26.89
2023-07-25T14:16:43.136Z,27.22
2023-07-25T14:19:46.149Z,27.58
2023-07-25T14:22:48.887Z,27.69
2023-07-25T14:25:51.641Z,27.44
2023-07-25T14:28:54.331Z,26.86
2023-07-25T14:31:57.180Z,26.73
2023-07-25T14:35:00.102Z,26.71
2023-07-25T14:38:03.250Z,26.69
2023-07-25T14:41:07.562Z,27.40
2023-07-25T14:44:10.427Z,27.83
2023-07-25T14:47:13.241Z,27.86
2023-07-25T14:50:16.058Z,28.07
2023-07-25T14:53:19.244Z,28.05
2023-07-25T14:56:22.060Z,28.09
2023-07-25T14:59:24.838Z,27.64
2023-07-25T15:02:27.929Z,27.90
2023-07-25T15:05:30.879Z,27.77
2023-07-25T15:08:33.734Z,27.77
2023-07-25T15:11:39.759Z,27.83
2023-07-25T15:14:42.552Z,27.67
2023-07-25T15:17:45.451Z,27.79
2023-07-25T15:20:48.256Z,28.04
2023-07-25T15:23:50.998Z,28.15
2023-07-25T15:26:53.867Z,28.39
2023-07-25T15:29:57.654Z,28.32
2023-07-25T15:33:00.558Z,27.99
2023-07-25T15:36:03.556Z,27.88
2023-07-25T15:39:06.306Z,27.89
2023-07-25T15:42:09.098Z,27.65
2023-07-25T15:45:11.863Z,27.47
2023-07-25T15:48:14.776Z,27.33
2023-07-25T15:51:18.116Z,27.10
2023-07-25T15:54:20.902Z,26.91
2023-07-25T15:57:23.620Z,26.97
2023-07-25T16:00:26.760Z,27.02
2023-07-25T16:03:29.623Z,26.97
2023-07-25T16:06:32.478Z,26.86
2023-07-25T16:09:35.279Z,26.88
2023-07-25T16:12:38.115Z,26.76
2023-07-25T16:15:40.946Z,26.76
2023-07-25T16:18:44.073Z,26.82
2023-07-25T16:21:46.917Z,26.70
2023-07-25T16:24:49.796Z,26.89
2023-07-25T16:27:53.279Z,26.82
2023-07-25T16:31:11.556Z,26.69
2023-07-25T16:34:18.965Z,26.75
2023-07-25T16:37:21.712Z,26.69
2023-07-25T16:40:24.449Z,26.64
2023-07-25T16:43:30.030Z,26.47
2023-07-25T16:46:32.856Z,26.36
2023-07-25T16:49:35.752Z,26.28
2023-07-25T16:52:39.122Z,26.28
2023-07-25T16:55:41.867Z,26.15
2023-07-25T16:58:44.631Z,25.98
2023-07-25T17:01:50.758Z,25.98
2023-07-25T17:05:02.145Z,25.85
2023-07-25T17:08:08.174Z,25.82
2023-07-25T17:15:04.624Z,25.72
2023-07-25T17:18:07.549Z,25.64
2023-07-25T17:21:16.358Z,25.62
2023-07-25T17:24:22.566Z,25.63
2023-07-25T17:27:25.944Z,25.59
2023-07-25T17:30:30.830Z,25.58
2023-07-25T17:33:33.897Z,25.56
2023-07-25T17:36:36.951Z,25.51
2023-07-25T17:39:39.688Z,25.49
2023-07-25T17:42:42.727Z,25.38
2023-07-25T17:45:45.670Z,25.32
2023-07-25T17:48:48.509Z,25.22
2023-07-25T17:51:51.266Z,25.08
2023-07-25T17:54:54.157Z,24.92
2023-07-25T17:57:57.010Z,24.83
2023-07-25T18:01:00.101Z,24.70
2023-07-25T18:04:05.137Z,24.53
2023-07-25T18:07:07.940Z,24.45
2023-07-25T18:10:10.906Z,24.34
2023-07-25T18:13:14.025Z,24.25
2023-07-25T18:16:16.811Z,24.16
2023-07-25T18:19:19.578Z,24.09
2023-07-25T18:22:23.027Z,24.04
2023-07-25T18:25:25.856Z,23.98
2023-07-25T18:28:29.032Z,23.92
2023-07-25T18:31:32.096Z,23.86
2023-07-25T18:34:35.198Z,23.83
2023-07-25T18:37:37.946Z,23.76
2023-07-25T18:40:40.913Z,23.70
2023-07-25T18:43:43.673Z,23.66
2023-07-25T18:46:46.491Z,23.64
2023-07-25T18:49:49.374Z,23.60
2023-07-25T18:52:52.214Z,23.57
2023-07-25T18:55:54.996Z,23.53
2023-07-25T18:58:57.781Z,23.52
2023-07-25T19:02:00.705Z,23.44
2023-07-25T19:05:03.643Z,23.43
2023-07-25T19:08:06.448Z,23.43
2023-07-25T19:11:09.316Z,23.42
2023-07-25T19:14:12.075Z,23.46
2023-07-25T19:17:14.889Z,23.45
2023-07-25T19:20:17.939Z,23.48
2023-07-25T19:23:26.438Z,23.47
2023-07-25T19:26:30.840Z,23.47
2023-07-25T19:29:34.073Z,23.49
2023-07-25T19:32:37.636Z,23.44
2023-07-25T19:35:42.660Z,23.46
2023-07-25T19:38:45.657Z,23.34
2023-07-25T19:41:49.647Z,23.31
2023-07-25T19:44:53.895Z,23.17
2023-07-25T19:47:58.685Z,23.11
2023-07-25T19:51:12.328Z,22.97
2023-07-25T19:54:15.266Z,22.74
2023-07-25T19:57:18.196Z,22.67
2023-07-25T20:00:21.117Z,22.42
2023-07-25T20:03:24.122Z,22.41
2023-07-25T20:06:27.198Z,22.28
2023-07-25T20:09:30.064Z,22.23
2023-07-25T20:12:32.853Z,22.24
2023-07-25T20:15:35.712Z,22.19
2023-07-25T20:18:38.532Z,22.20
2023-07-25T20:21:45.954Z,22.18
2023-07-25T20:24:48.745Z,22.23
2023-07-25T20:27:51.595Z,22.21
2023-07-25T20:30:54.341Z,22.22
2023-07-25T20:33:57.496Z,22.15
2023-07-25T20:37:00.954Z,22.02
2023-07-25T20:40:06.453Z,22.01
2023-07-25T20:43:10.698Z,22.02
2023-07-25T20:46:14.011Z,22.02
2023-07-25T20:49:16.955Z,21.92
2023-07-25T20:52:19.743Z,21.88
2023-07-25T20:55:22.556Z,21.76
2023-07-25T20:58:25.873Z,21.76
2023-07-25T21:01:28.654Z,21.77
2023-07-25T21:04:31.440Z,21.62
2023-07-25T21:07:34.601Z,21.68
2023-07-25T21:10:37.342Z,21.75
2023-07-25T21:13:41.309Z,21.71
2023-07-25T21:16:44.120Z,21.73
2023-07-25T21:19:46.987Z,21.66
2023-07-25T21:22:50.606Z,21.64
2023-07-25T21:25:53.415Z,21.58
2023-07-25T21:28:56.405Z,21.60
2023-07-25T21:31:59.288Z,21.50
2023-07-25T21:35:02.186Z,21.43
2023-07-25T21:38:05.137Z,21.35
2023-07-25T21:41:09.773Z,21.26
2023-07-25T21:44:12.983Z,21.19
2023-07-25T21:47:15.808Z,21.17
2023-07-25T21:50:18.525Z,20.96
2023-07-25T21:53:21.356Z,20.84
2023-07-25T21:56:24.144Z,20.76
2023-07-25T21:59:26.957Z,20.71
2023-07-25T22:02:29.964Z,20.64
2023-07-25T22:05:32.770Z,20.50
2023-07-25T22:08:36.647Z,20.46
2023-07-25T22:11:39.493Z,20.43
2023-07-25T22:14:42.340Z,20.24
2023-07-25T22:17:45.167Z,20.15
2023-07-25T22:20:52.441Z,20.15
2023-07-25T22:23:56.047Z,20.15
2023-07-25T22:26:58.995Z,20.17
2023-07-25T22:30:01.837Z,20.17
2023-07-25T22:33:04.824Z,20.12
2023-07-25T22:36:08.316Z,20.07
2023-07-25T22:39:11.151Z,20.12
2023-07-25T22:42:15.110Z,20.10
2023-07-25T22:45:17.882Z,20.07
2023-07-25T22:48:20.699Z,20.09
2023-07-25T22:51:23.598Z,20.09
2023-07-25T22:54:27.330Z,20.13
2023-07-25T22:57:30.231Z,20.04
2023-07-25T23:00:33.075Z,19.89
2023-07-25T23:03:37.690Z,19.93
2023-07-25T23:06:40.507Z,19.95
2023-07-25T23:09:43.248Z,19.97
2023-07-25T23:12:48.753Z,19.82
2023-07-25T23:15:51.670Z,19.62
2023-07-25T23:18:55.038Z,19.49
2023-07-25T23:21:57.773Z,19.31
2023-07-25T23:25:00.651Z,19.17
2023-07-25T23:28:03.538Z,19.11
2023-07-25T23:31:06.526Z,19.08
2023-07-25T23:34:09.370Z,19.02
2023-07-25T23:37:12.298Z,19.07
2023-07-25T23:40:15.178Z,19.11
2023-07-25T23:43:18.072Z,19.15
2023-07-25T23:46:20.850Z,19.11
2023-07-25T23:49:23.702Z,18.99
2023-07-25T23:52:26.562Z,18.85
2023-07-25T23:55:29.450Z,18.84
2023-07-25T23:58:32.398Z,18.80
